createdAt,value
2018-07-15T00:00:09.023Z,0
2018-07-15T00:01:17.667Z,0
2018-07-15T00:02:26.308Z,0
2018-07-15T00:03:34.949Z,0
2018-07-15T00:04:43.603Z,0
2018-07-15T00:05:52.239Z,0
2018-07-15T00:07:00.890Z,0
2018-07-15T00:08:09.531Z,0
2018-07-15T00:09:18.184Z,0
2018-07-15T00:10:26.820Z,0
2018-07-15T00:11:35.469Z,0
2018-07-15T00:12:44.113Z,0
2018-07-15T00:13:52.768Z,0
2018-07-15T00:15:01.681Z,0
2018-07-15T00:16:10.319Z,0
2018-07-15T00:17:18.964Z,0
2018-07-15T00:18:27.615Z,0
2018-07-15T00:19:36.533Z,0
2018-07-15T00:20:45.438Z,0
2018-07-15T00:21:54.356Z,0
2018-07-15T00:23:03.254Z,0
2018-07-15T00:24:11.907Z,0
2018-07-15T00:25:20.819Z,0
2018-07-15T00:26:29.730Z,0
2018-07-15T00:27:38.366Z,0
2018-07-15T00:28:47.283Z,0
2018-07-15T00:29:55.924Z,0
2018-07-15T00:31:04.578Z,0
2018-07-15T00:32:13.217Z,0
2018-07-15T00:33:21.866Z,0
2018-07-15T00:34:30.514Z,0
2018-07-15T00:35:39.159Z,0
2018-07-15T00:36:48.072Z,0
2018-07-15T00:37:56.711Z,0
2018-07-15T00:39:05.626Z,0
2018-07-15T00:40:14.274Z,0
2018-07-15T00:41:22.910Z,0
2018-07-15T00:42:31.563Z,0
2018-07-15T00:43:40.474Z,0
2018-07-15T00:44:49.123Z,0
2018-07-15T00:45:57.757Z,0
2018-07-15T00:47:06.427Z,0
2018-07-15T00:48:15.067Z,0
2018-07-15T00:49:23.713Z,0
2018-07-15T00:50:32.348Z,0
2018-07-15T00:51:41.256Z,0
2018-07-15T00:52:49.904Z,0
2018-07-15T00:53:58.552Z,0
2018-07-15T00:55:07.269Z,0
2018-07-15T00:56:15.836Z,0
2018-07-15T00:57:24.494Z,0
2018-07-15T00:58:33.133Z,0
2018-07-15T00:59:41.786Z,0
2018-07-15T01:00:50.420Z,0
2018-07-15T01:01:59.339Z,0
2018-07-15T01:03:07.980Z,0
2018-07-15T01:04:16.635Z,0
2018-07-15T01:05:25.271Z,0
2018-07-15T01:06:33.920Z,0
2018-07-15T01:07:42.829Z,0
2018-07-15T01:08:51.483Z,0
2018-07-15T01:10:00.130Z,0
2018-07-15T01:11:08.770Z,0
2018-07-15T01:12:17.410Z,0
2018-07-15T01:13:26.053Z,0
2018-07-15T01:14:34.706Z,0
2018-07-15T01:15:43.610Z,0
2018-07-15T01:16:52.257Z,0
2018-07-15T01:18:01.157Z,0
2018-07-15T01:19:09.811Z,0
2018-07-15T01:20:18.714Z,0
2018-07-15T01:21:27.629Z,0
2018-07-15T01:22:36.265Z,0
2018-07-15T01:23:44.920Z,0
2018-07-15T01:24:53.823Z,0
2018-07-15T01:26:02.470Z,0
2018-07-15T01:27:11.107Z,0
2018-07-15T01:28:20.279Z,0
2018-07-15T01:29:28.938Z,0
2018-07-15T01:30:37.576Z,0
2018-07-15T01:31:46.222Z,0
2018-07-15T01:32:54.860Z,0
2018-07-15T01:34:03.510Z,0
2018-07-15T01:35:12.413Z,0
2018-07-15T01:36:21.063Z,0
2018-07-15T01:37:29.700Z,0
2018-07-15T01:38:38.343Z,0
2018-07-15T01:39:46.987Z,0
2018-07-15T01:40:55.900Z,0
2018-07-15T01:42:04.542Z,0
2018-07-15T01:43:13.464Z,0
2018-07-15T01:44:22.109Z,0
2018-07-15T01:45:31.020Z,0
2018-07-15T01:46:39.664Z,0
2018-07-15T01:47:48.303Z,0
2018-07-15T01:48:56.945Z,0
2018-07-15T01:50:05.589Z,0
2018-07-15T01:51:14.237Z,0
2018-07-15T01:52:22.880Z,0
2018-07-15T01:53:31.530Z,0
2018-07-15T01:54:40.167Z,0
2018-07-15T01:55:48.816Z,0
2018-07-15T01:56:57.460Z,0
2018-07-15T01:58:06.114Z,0
2018-07-15T01:59:14.752Z,0
2018-07-15T02:00:23.400Z,0
2018-07-15T02:01:32.305Z,0
2018-07-15T02:02:40.956Z,0
2018-07-15T02:03:49.599Z,0
2018-07-15T02:04:58.246Z,0
2018-07-15T02:06:06.890Z,0
2018-07-15T02:07:15.538Z,0
2018-07-15T02:08:24.185Z,0
2018-07-15T02:09:32.827Z,0
2018-07-15T02:10:41.467Z,0
2018-07-15T02:11:50.112Z,0
2018-07-15T02:12:58.764Z,0
2018-07-15T02:14:07.666Z,0
2018-07-15T02:15:16.315Z,0
2018-07-15T02:16:25.222Z,0
2018-07-15T02:17:33.873Z,0
2018-07-15T02:18:42.509Z,0
2018-07-15T02:19:51.154Z,0
2018-07-15T02:20:59.794Z,0
2018-07-15T02:22:08.448Z,0
2018-07-15T02:23:17.106Z,0
2018-07-15T02:24:26.272Z,0
2018-07-15T02:25:35.178Z,0
2018-07-15T02:26:43.819Z,0
2018-07-15T02:27:52.470Z,0
2018-07-15T02:29:01.114Z,0
2018-07-15T02:30:10.030Z,0
2018-07-15T02:31:18.675Z,0
2018-07-15T02:32:27.589Z,0
2018-07-15T02:33:36.233Z,0
2018-07-15T02:34:44.883Z,0
2018-07-15T02:35:54.049Z,0
2018-07-15T02:37:02.703Z,0
2018-07-15T02:38:11.350Z,0
2018-07-15T02:39:20.253Z,0
2018-07-15T02:40:28.907Z,0
2018-07-15T02:41:37.543Z,0
2018-07-15T02:42:46.460Z,0
2018-07-15T02:43:55.386Z,0
2018-07-15T02:45:04.586Z,0
2018-07-15T02:46:13.232Z,0
2018-07-15T02:47:22.137Z,0
2018-07-15T02:48:30.780Z,0
2018-07-15T02:49:39.434Z,0
2018-07-15T02:50:48.885Z,0
2018-07-15T02:51:57.529Z,0
2018-07-15T02:53:06.175Z,0
2018-07-15T02:54:14.825Z,0
2018-07-15T02:55:23.467Z,0
2018-07-15T02:56:32.124Z,0
2018-07-15T02:57:41.028Z,0
2018-07-15T02:58:49.675Z,0
2018-07-15T02:59:58.588Z,0
2018-07-15T03:01:07.237Z,0
2018-07-15T03:02:15.883Z,0
2018-07-15T03:03:24.525Z,0
2018-07-15T03:04:33.176Z,0
2018-07-15T03:05:41.815Z,0
2018-07-15T03:06:50.461Z,0
2018-07-15T03:07:59.104Z,0
2018-07-15T03:09:08.023Z,0
2018-07-15T03:10:16.930Z,0
2018-07-15T03:11:25.582Z,0
2018-07-15T03:12:34.487Z,0
2018-07-15T03:13:43.138Z,0
2018-07-15T03:14:51.790Z,0
2018-07-15T03:16:00.709Z,0
2018-07-15T03:17:09.669Z,0
2018-07-15T03:18:18.278Z,0
2018-07-15T03:19:27.195Z,0
2018-07-15T03:20:35.832Z,0
2018-07-15T03:21:44.480Z,5
2018-07-15T03:22:53.127Z,5
2018-07-15T03:24:02.040Z,5
2018-07-15T03:25:10.960Z,5
2018-07-15T03:26:20.136Z,5
2018-07-15T03:27:29.305Z,5
2018-07-15T03:28:37.946Z,5
2018-07-15T03:29:46.599Z,5
2018-07-15T03:30:55.254Z,5
2018-07-15T03:32:03.900Z,10
2018-07-15T03:33:12.550Z,10
2018-07-15T03:34:21.202Z,10
2018-07-15T03:35:30.124Z,10
2018-07-15T03:36:38.764Z,10
2018-07-15T03:37:47.409Z,10
2018-07-15T03:38:56.053Z,10
2018-07-15T03:40:04.694Z,15
2018-07-15T03:41:13.346Z,15
2018-07-15T03:42:21.984Z,15
2018-07-15T03:43:30.632Z,15
2018-07-15T03:44:39.264Z,15
2018-07-15T03:45:48.184Z,15
2018-07-15T03:46:56.823Z,20
2018-07-15T03:48:05.472Z,20
2018-07-15T03:49:14.107Z,20
2018-07-15T03:50:22.760Z,20
2018-07-15T03:51:31.403Z,20
2018-07-15T03:52:40.046Z,20
2018-07-15T03:53:48.682Z,25
2018-07-15T03:54:57.332Z,25
2018-07-15T03:56:05.980Z,25
2018-07-15T03:57:15.152Z,25
2018-07-15T03:58:23.802Z,25
2018-07-15T03:59:32.700Z,30
2018-07-15T04:00:41.669Z,30
2018-07-15T04:01:50.665Z,30
2018-07-15T04:02:59.320Z,30
2018-07-15T04:04:07.952Z,30
2018-07-15T04:05:16.601Z,30
2018-07-15T04:06:25.237Z,35
2018-07-15T04:07:33.889Z,35
2018-07-15T04:08:42.630Z,35
2018-07-15T04:09:51.171Z,35
2018-07-15T04:10:59.816Z,35
2018-07-15T04:12:08.468Z,35
2018-07-15T04:13:17.111Z,40
2018-07-15T04:14:25.748Z,40
2018-07-15T04:15:34.391Z,40
2018-07-15T04:16:43.030Z,40
2018-07-15T04:17:51.682Z,40
2018-07-15T04:19:00.318Z,40
2018-07-15T04:20:09.233Z,45
2018-07-15T04:21:18.132Z,45
2018-07-15T04:22:26.783Z,45
2018-07-15T04:23:35.421Z,45
2018-07-15T04:24:44.070Z,45
2018-07-15T04:25:52.703Z,45
2018-07-15T04:27:01.357Z,50
2018-07-15T04:28:10.013Z,50
2018-07-15T04:29:18.648Z,50
2018-07-15T04:30:27.309Z,50
2018-07-15T04:31:36.216Z,50
2018-07-15T04:32:44.865Z,50
2018-07-15T04:33:53.505Z,55
2018-07-15T04:35:02.409Z,55
2018-07-15T04:36:11.061Z,55
2018-07-15T04:37:19.700Z,55
2018-07-15T04:38:28.613Z,55
2018-07-15T04:39:37.249Z,60
2018-07-15T04:40:45.910Z,60
2018-07-15T04:41:54.811Z,60
2018-07-15T04:43:03.457Z,60
2018-07-15T04:44:12.099Z,60
2018-07-15T04:45:20.753Z,65
2018-07-15T04:46:29.395Z,65
2018-07-15T04:47:38.040Z,65
2018-07-15T04:48:46.674Z,65
2018-07-15T04:49:55.584Z,65
2018-07-15T04:51:04.232Z,70
2018-07-15T04:52:12.880Z,70
2018-07-15T04:53:21.527Z,70
2018-07-15T04:54:30.159Z,70
2018-07-15T04:55:38.807Z,70
2018-07-15T04:56:47.446Z,70
2018-07-15T04:57:56.097Z,70
2018-07-15T04:59:04.733Z,75
2018-07-15T05:00:13.385Z,75
2018-07-15T05:01:22.025Z,75
2018-07-15T05:02:30.679Z,80
2018-07-15T05:03:39.314Z,80
2018-07-15T05:04:47.960Z,80
2018-07-15T05:05:56.861Z,80
2018-07-15T05:07:05.514Z,80
2018-07-15T05:08:14.423Z,80
2018-07-15T05:09:23.064Z,85
2018-07-15T05:10:31.706Z,85
2018-07-15T05:11:40.347Z,85
2018-07-15T05:12:49.001Z,85
2018-07-15T05:13:57.672Z,90
2018-07-15T05:15:06.288Z,90
2018-07-15T05:16:14.922Z,90
2018-07-15T05:17:23.577Z,90
2018-07-15T05:18:32.312Z,90
2018-07-15T05:19:40.866Z,90
2018-07-15T05:20:49.501Z,95
2018-07-15T05:21:58.156Z,95
2018-07-15T05:23:07.058Z,95
2018-07-15T05:24:15.706Z,95
2018-07-15T05:25:24.343Z,100
2018-07-15T05:26:32.994Z,100
2018-07-15T05:27:41.644Z,100
2018-07-15T05:28:50.294Z,100
2018-07-15T05:29:58.959Z,95
2018-07-15T05:31:07.581Z,95
2018-07-15T05:32:16.227Z,95
2018-07-15T05:33:24.870Z,100
2018-07-15T05:34:33.516Z,100
2018-07-15T05:35:42.157Z,100
2018-07-15T05:36:50.800Z,100
2018-07-15T05:37:59.446Z,100
2018-07-15T05:39:08.100Z,100
2018-07-15T05:40:16.740Z,105
2018-07-15T05:41:25.392Z,105
2018-07-15T05:42:34.036Z,105
2018-07-15T05:43:42.952Z,105
2018-07-15T05:44:51.595Z,105
2018-07-15T05:46:00.238Z,105
2018-07-15T05:47:08.880Z,110
2018-07-15T05:48:17.523Z,110
2018-07-15T05:49:26.445Z,110
2018-07-15T05:50:35.091Z,110
2018-07-15T05:51:44.047Z,115
2018-07-15T05:52:52.645Z,110
2018-07-15T05:54:01.294Z,110
2018-07-15T05:55:10.466Z,115
2018-07-15T05:56:19.374Z,115
2018-07-15T05:57:28.013Z,115
2018-07-15T05:58:36.670Z,115
2018-07-15T05:59:45.311Z,115
2018-07-15T06:00:53.957Z,110
2018-07-15T06:02:02.864Z,110
2018-07-15T06:03:11.768Z,115
2018-07-15T06:04:20.414Z,115
2018-07-15T06:05:29.062Z,115
2018-07-15T06:06:37.713Z,115
2018-07-15T06:07:46.352Z,115
2018-07-15T06:08:54.997Z,115
2018-07-15T06:10:03.915Z,115
2018-07-15T06:11:12.562Z,120
2018-07-15T06:12:21.463Z,120
2018-07-15T06:13:30.108Z,120
2018-07-15T06:14:38.753Z,120
2018-07-15T06:15:47.402Z,120
2018-07-15T06:16:56.042Z,120
2018-07-15T06:18:04.715Z,120
2018-07-15T06:19:13.335Z,120
2018-07-15T06:20:21.984Z,120
2018-07-15T06:21:30.629Z,125
2018-07-15T06:22:39.285Z,125
2018-07-15T06:23:47.919Z,125
2018-07-15T06:24:56.562Z,125
2018-07-15T06:26:05.214Z,125
2018-07-15T06:27:13.860Z,125
2018-07-15T06:28:22.506Z,125
2018-07-15T06:29:31.148Z,125
2018-07-15T06:30:39.801Z,125
2018-07-15T06:31:48.838Z,130
2018-07-15T06:32:57.443Z,130
2018-07-15T06:34:06.082Z,130
2018-07-15T06:35:14.731Z,125
2018-07-15T06:36:23.372Z,130
2018-07-15T06:37:32.284Z,135
2018-07-15T06:38:40.920Z,130
2018-07-15T06:39:49.570Z,130
2018-07-15T06:40:58.219Z,125
2018-07-15T06:42:06.867Z,125
2018-07-15T06:43:15.568Z,130
2018-07-15T06:44:24.152Z,130
2018-07-15T06:45:32.804Z,130
2018-07-15T06:46:41.448Z,130
2018-07-15T06:47:50.101Z,130
2018-07-15T06:48:58.739Z,130
2018-07-15T06:50:07.390Z,130
2018-07-15T06:51:16.302Z,130
2018-07-15T06:52:24.957Z,130
2018-07-15T06:53:33.594Z,130
2018-07-15T06:54:42.505Z,130
2018-07-15T06:55:51.451Z,130
2018-07-15T06:57:00.377Z,130
2018-07-15T06:58:09.019Z,130
2018-07-15T06:59:17.664Z,135
2018-07-15T07:00:26.584Z,135
2018-07-15T07:01:35.246Z,135
2018-07-15T07:02:43.879Z,135
2018-07-15T07:03:52.522Z,135
2018-07-15T07:05:01.173Z,135
2018-07-15T07:06:09.810Z,135
2018-07-15T07:07:18.543Z,135
2018-07-15T07:08:27.111Z,135
2018-07-15T07:09:35.761Z,135
2018-07-15T07:10:44.399Z,135
2018-07-15T07:11:53.056Z,135
2018-07-15T07:13:01.967Z,135
2018-07-15T07:14:10.977Z,135
2018-07-15T07:15:19.562Z,135
2018-07-15T07:16:28.210Z,135
2018-07-15T07:17:36.863Z,135
2018-07-15T07:18:45.772Z,135
2018-07-15T07:19:54.422Z,135
2018-07-15T07:21:03.063Z,135
2018-07-15T07:22:11.722Z,135
2018-07-15T07:23:20.362Z,140
2018-07-15T07:24:29.019Z,140
2018-07-15T07:25:37.662Z,140
2018-07-15T07:26:46.315Z,140
2018-07-15T07:27:54.957Z,140
2018-07-15T07:29:03.612Z,140
2018-07-15T07:30:12.255Z,140
2018-07-15T07:31:20.905Z,140
2018-07-15T07:32:29.548Z,140
2018-07-15T07:33:38.197Z,140
2018-07-15T07:34:47.115Z,140
2018-07-15T07:35:55.759Z,140
2018-07-15T07:37:04.404Z,140
2018-07-15T07:38:13.049Z,140
2018-07-15T07:39:21.705Z,140
2018-07-15T07:40:30.353Z,140
2018-07-15T07:41:39.002Z,140
2018-07-15T07:42:47.646Z,140
2018-07-15T07:43:56.299Z,140
2018-07-15T07:45:05.209Z,140
2018-07-15T07:46:13.856Z,140
2018-07-15T07:47:22.499Z,140
2018-07-15T07:48:31.155Z,140
2018-07-15T07:49:39.800Z,140
2018-07-15T07:50:48.459Z,145
2018-07-15T07:51:57.367Z,140
2018-07-15T07:53:06.012Z,145
2018-07-15T07:54:14.662Z,140
2018-07-15T07:55:23.313Z,140
2018-07-15T07:56:31.967Z,140
2018-07-15T07:57:40.609Z,140
2018-07-15T07:58:49.258Z,140
2018-07-15T07:59:57.907Z,140
2018-07-15T08:01:06.558Z,140
2018-07-15T08:02:15.467Z,140
2018-07-15T08:03:24.377Z,140
2018-07-15T08:04:33.029Z,140
2018-07-15T08:05:41.680Z,140
2018-07-15T08:06:50.326Z,140
2018-07-15T08:07:58.975Z,140
2018-07-15T08:09:07.621Z,145
2018-07-15T08:10:16.274Z,145
2018-07-15T08:11:24.924Z,145
2018-07-15T08:12:33.833Z,145
2018-07-15T08:13:42.481Z,145
2018-07-15T08:14:51.128Z,145
2018-07-15T08:15:59.779Z,145
2018-07-15T08:17:08.428Z,155
2018-07-15T08:18:17.076Z,150
2018-07-15T08:19:25.719Z,145
2018-07-15T08:20:34.371Z,145
2018-07-15T08:21:43.021Z,150
2018-07-15T08:22:51.667Z,150
2018-07-15T08:24:00.312Z,150
2018-07-15T08:25:08.963Z,150
2018-07-15T08:26:17.610Z,150
2018-07-15T08:27:26.258Z,150
2018-07-15T08:28:35.653Z,150
2018-07-15T08:29:44.114Z,150
2018-07-15T08:30:52.762Z,150
2018-07-15T08:32:01.674Z,150
2018-07-15T08:33:10.601Z,150
2018-07-15T08:34:19.516Z,150
2018-07-15T08:35:28.164Z,150
2018-07-15T08:36:36.813Z,155
2018-07-15T08:37:45.458Z,150
2018-07-15T08:38:54.110Z,155
2018-07-15T08:40:02.760Z,155
2018-07-15T08:41:11.406Z,155
2018-07-15T08:42:20.051Z,150
2018-07-15T08:43:28.706Z,150
2018-07-15T08:44:37.367Z,150
2018-07-15T08:45:46.005Z,150
2018-07-15T08:46:54.660Z,150
2018-07-15T08:48:03.574Z,150
2018-07-15T08:49:12.225Z,150
2018-07-15T08:50:21.137Z,150
2018-07-15T08:51:29.788Z,150
2018-07-15T08:52:38.431Z,150
2018-07-15T08:53:47.078Z,150
2018-07-15T08:54:55.726Z,150
2018-07-15T08:56:04.644Z,150
2018-07-15T08:57:13.294Z,150
2018-07-15T08:58:21.936Z,150
2018-07-15T08:59:30.586Z,150
2018-07-15T09:00:39.239Z,150
2018-07-15T09:01:47.883Z,155
2018-07-15T09:02:56.537Z,150
2018-07-15T09:04:05.183Z,150
2018-07-15T09:05:13.837Z,150
2018-07-15T09:06:22.488Z,150
2018-07-15T09:07:31.136Z,155
2018-07-15T09:08:39.784Z,155
2018-07-15T09:09:48.431Z,155
2018-07-15T09:10:57.085Z,155
2018-07-15T09:12:05.737Z,155
2018-07-15T09:13:14.384Z,155
2018-07-15T09:14:23.293Z,155
2018-07-15T09:15:31.946Z,155
2018-07-15T09:16:40.598Z,155
2018-07-15T09:17:49.248Z,155
2018-07-15T09:18:58.160Z,155
2018-07-15T09:20:06.808Z,155
2018-07-15T09:21:15.755Z,155
2018-07-15T09:22:24.373Z,155
2018-07-15T09:23:33.022Z,155
2018-07-15T09:24:41.673Z,155
2018-07-15T09:25:50.326Z,155
2018-07-15T09:26:59.243Z,155
2018-07-15T09:28:08.166Z,155
2018-07-15T09:29:17.065Z,155
2018-07-15T09:30:25.720Z,155
2018-07-15T09:31:34.369Z,155
2018-07-15T09:32:43.038Z,155
2018-07-15T09:33:51.665Z,155
2018-07-15T09:35:00.323Z,155
2018-07-15T09:36:08.970Z,160
2018-07-15T09:37:17.627Z,155
2018-07-15T09:38:26.535Z,155
2018-07-15T09:39:35.180Z,160
2018-07-15T09:40:43.828Z,160
2018-07-15T09:41:52.755Z,160
2018-07-15T09:43:01.404Z,160
2018-07-15T09:44:10.051Z,160
2018-07-15T09:45:18.697Z,160
2018-07-15T09:46:27.611Z,160
2018-07-15T09:47:36.271Z,160
2018-07-15T09:48:44.915Z,160
2018-07-15T09:49:53.571Z,160
2018-07-15T09:51:02.476Z,160
2018-07-15T09:52:11.136Z,160
2018-07-15T09:53:20.046Z,160
2018-07-15T09:54:28.707Z,165
2018-07-15T09:55:37.351Z,165
2018-07-15T09:56:46.011Z,165
2018-07-15T09:57:54.924Z,165
2018-07-15T09:59:03.836Z,165
2018-07-15T10:00:12.477Z,165
2018-07-15T10:01:21.132Z,170
2018-07-15T10:02:29.792Z,165
2018-07-15T10:03:38.701Z,165
2018-07-15T10:04:47.726Z,165
2018-07-15T10:05:56.368Z,165
2018-07-15T10:07:05.021Z,165
2018-07-15T10:08:13.934Z,165
2018-07-15T10:09:22.591Z,165
2018-07-15T10:10:31.323Z,170
2018-07-15T10:11:39.886Z,170
2018-07-15T10:12:48.531Z,170
2018-07-15T10:13:57.192Z,170
2018-07-15T10:15:05.834Z,170
2018-07-15T10:16:14.487Z,170
2018-07-15T10:17:23.135Z,170
2018-07-15T10:18:32.053Z,170
2018-07-15T10:19:40.701Z,170
2018-07-15T10:20:49.348Z,170
2018-07-15T10:21:57.995Z,170
2018-07-15T10:23:06.642Z,170
2018-07-15T10:24:15.310Z,175
2018-07-15T10:25:23.954Z,175
2018-07-15T10:26:32.673Z,175
2018-07-15T10:27:41.527Z,175
2018-07-15T10:28:50.173Z,175
2018-07-15T10:29:59.085Z,175
2018-07-15T10:31:07.737Z,175
2018-07-15T10:32:16.917Z,175
2018-07-15T10:33:25.564Z,175
2018-07-15T10:34:34.215Z,180
2018-07-15T10:35:43.132Z,180
2018-07-15T10:36:51.784Z,180
2018-07-15T10:38:00.435Z,185
2018-07-15T10:39:09.261Z,180
2018-07-15T10:40:17.736Z,180
2018-07-15T10:41:26.385Z,180
2018-07-15T10:42:35.042Z,180
2018-07-15T10:43:43.694Z,180
2018-07-15T10:44:52.347Z,180
2018-07-15T10:46:00.995Z,180
2018-07-15T10:47:09.651Z,180
2018-07-15T10:48:18.304Z,180
2018-07-15T10:49:27.220Z,180
2018-07-15T10:50:35.866Z,180
2018-07-15T10:51:44.792Z,180
2018-07-15T10:52:53.497Z,180
2018-07-15T10:54:02.101Z,185
2018-07-15T10:55:10.752Z,185
2018-07-15T10:56:19.664Z,185
2018-07-15T10:57:28.319Z,185
2018-07-15T10:58:37.258Z,185
2018-07-15T10:59:46.176Z,185
2018-07-15T11:00:54.892Z,185
2018-07-15T11:02:03.747Z,185
2018-07-15T11:03:12.395Z,185
2018-07-15T11:04:21.315Z,185
2018-07-15T11:05:29.963Z,190
2018-07-15T11:06:39.140Z,185
2018-07-15T11:07:47.792Z,185
2018-07-15T11:08:56.452Z,185
2018-07-15T11:10:05.356Z,185
2018-07-15T11:11:14.012Z,185
2018-07-15T11:12:22.665Z,185
2018-07-15T11:13:31.326Z,185
2018-07-15T11:14:39.977Z,185
2018-07-15T11:15:48.631Z,185
2018-07-15T11:16:57.285Z,185
2018-07-15T11:18:05.947Z,185
2018-07-15T11:19:14.611Z,185
2018-07-15T11:20:23.802Z,190
2018-07-15T11:21:32.447Z,185
2018-07-15T11:22:41.098Z,185
2018-07-15T11:23:49.756Z,190
2018-07-15T11:24:58.405Z,185
2018-07-15T11:26:07.343Z,185
2018-07-15T11:27:15.974Z,185
2018-07-15T11:28:24.634Z,185
2018-07-15T11:29:33.283Z,185
2018-07-15T11:30:42.276Z,190
2018-07-15T11:31:50.853Z,185
2018-07-15T11:32:59.767Z,185
2018-07-15T11:34:08.425Z,185
2018-07-15T11:35:17.077Z,185
2018-07-15T11:36:25.995Z,185
2018-07-15T11:37:34.642Z,185
2018-07-15T11:38:43.298Z,185
2018-07-15T11:39:51.948Z,185
2018-07-15T11:41:00.613Z,185
2018-07-15T11:42:09.257Z,185
2018-07-15T11:43:17.907Z,185
2018-07-15T11:44:26.559Z,185
2018-07-15T11:45:35.219Z,185
2018-07-15T11:46:43.867Z,185
2018-07-15T11:47:52.521Z,185
2018-07-15T11:49:01.175Z,185
2018-07-15T11:50:10.109Z,185
2018-07-15T11:51:19.021Z,185
2018-07-15T11:52:27.940Z,185
2018-07-15T11:53:36.585Z,185
2018-07-15T11:54:45.235Z,195
2018-07-15T11:55:54.441Z,185
2018-07-15T11:57:03.088Z,185
2018-07-15T11:58:11.745Z,190
2018-07-15T11:59:20.390Z,185
2018-07-15T12:00:29.317Z,185
2018-07-15T12:01:38.034Z,185
2018-07-15T12:02:46.619Z,185
2018-07-15T12:03:55.264Z,190
2018-07-15T12:05:03.924Z,190
2018-07-15T12:06:12.574Z,190
2018-07-15T12:07:21.228Z,185
2018-07-15T12:08:29.872Z,185
2018-07-15T12:09:38.530Z,185
2018-07-15T12:10:47.188Z,185
2018-07-15T12:11:55.844Z,185
2018-07-15T12:13:04.500Z,185
2018-07-15T12:14:13.405Z,185
2018-07-15T12:15:22.065Z,185
2018-07-15T12:16:30.989Z,185
2018-07-15T12:17:39.645Z,185
2018-07-15T12:18:48.291Z,185
2018-07-15T12:19:56.944Z,185
2018-07-15T12:21:05.592Z,185
2018-07-15T12:22:14.248Z,185
2018-07-15T12:23:23.166Z,185
2018-07-15T12:24:31.817Z,185
2018-07-15T12:25:40.475Z,185
2018-07-15T12:26:49.121Z,185
2018-07-15T12:27:57.781Z,185
2018-07-15T12:29:06.439Z,185
2018-07-15T12:30:15.098Z,185
2018-07-15T12:31:24.020Z,185
2018-07-15T12:32:32.661Z,185
2018-07-15T12:33:41.320Z,185
2018-07-15T12:34:49.967Z,185
2018-07-15T12:35:58.630Z,185
2018-07-15T12:37:07.274Z,185
2018-07-15T12:38:15.932Z,185
2018-07-15T12:39:24.578Z,185
2018-07-15T12:40:33.498Z,185
2018-07-15T12:41:42.142Z,185
2018-07-15T12:42:50.796Z,185
2018-07-15T12:43:59.447Z,190
2018-07-15T12:45:08.380Z,190
2018-07-15T12:46:17.297Z,190
2018-07-15T12:47:25.950Z,190
2018-07-15T12:48:34.599Z,190
2018-07-15T12:49:43.249Z,190
2018-07-15T12:50:52.179Z,190
2018-07-15T12:52:00.878Z,190
2018-07-15T12:53:09.752Z,195
2018-07-15T12:54:18.661Z,190
2018-07-15T12:55:27.321Z,190
2018-07-15T12:56:35.969Z,190
2018-07-15T12:57:44.622Z,190
2018-07-15T12:58:53.268Z,190
2018-07-15T13:00:01.933Z,190
2018-07-15T13:01:10.589Z,195
2018-07-15T13:02:19.241Z,190
2018-07-15T13:03:27.885Z,190
2018-07-15T13:04:37.072Z,190
2018-07-15T13:05:45.732Z,190
2018-07-15T13:06:54.388Z,190
2018-07-15T13:08:03.046Z,190
2018-07-15T13:09:11.695Z,190
2018-07-15T13:10:20.614Z,190
2018-07-15T13:11:29.265Z,190
2018-07-15T13:12:37.927Z,190
2018-07-15T13:13:46.576Z,190
2018-07-15T13:14:55.234Z,190
2018-07-15T13:16:03.883Z,190
2018-07-15T13:17:12.821Z,185
2018-07-15T13:18:21.448Z,185
2018-07-15T13:19:30.105Z,185
2018-07-15T13:20:38.760Z,185
2018-07-15T13:21:47.418Z,185
2018-07-15T13:22:56.333Z,185
2018-07-15T13:24:04.995Z,190
2018-07-15T13:25:13.650Z,185
2018-07-15T13:26:22.301Z,185
2018-07-15T13:27:31.220Z,185
2018-07-15T13:28:39.871Z,185
2018-07-15T13:29:48.575Z,185
2018-07-15T13:30:57.172Z,185
2018-07-15T13:32:05.829Z,185
2018-07-15T13:33:14.750Z,185
2018-07-15T13:34:23.413Z,185
2018-07-15T13:35:32.332Z,185
2018-07-15T13:36:40.988Z,185
2018-07-15T13:37:49.638Z,185
2018-07-15T13:38:58.297Z,185
2018-07-15T13:40:06.942Z,185
2018-07-15T13:41:15.598Z,185
2018-07-15T13:42:24.252Z,185
2018-07-15T13:43:32.907Z,185
2018-07-15T13:44:41.563Z,185
2018-07-15T13:45:50.215Z,185
2018-07-15T13:46:58.862Z,185
2018-07-15T13:48:07.518Z,185
2018-07-15T13:49:16.181Z,185
2018-07-15T13:50:25.094Z,190
2018-07-15T13:51:33.746Z,185
2018-07-15T13:52:42.401Z,185
2018-07-15T13:53:51.063Z,185
2018-07-15T13:54:59.974Z,185
2018-07-15T13:56:08.632Z,185
2018-07-15T13:57:17.288Z,185
2018-07-15T13:58:26.212Z,185
2018-07-15T13:59:34.863Z,185
2018-07-15T14:00:43.789Z,185
2018-07-15T14:01:52.438Z,185
2018-07-15T14:03:01.089Z,185
2018-07-15T14:04:09.824Z,185
2018-07-15T14:05:18.401Z,185
2018-07-15T14:06:27.055Z,185
2018-07-15T14:07:35.702Z,185
2018-07-15T14:08:44.359Z,180
2018-07-15T14:09:53.010Z,180
2018-07-15T14:11:01.663Z,185
2018-07-15T14:12:10.317Z,180
2018-07-15T14:13:18.977Z,180
2018-07-15T14:14:27.944Z,180
2018-07-15T14:15:36.601Z,175
2018-07-15T14:16:45.513Z,175
2018-07-15T14:17:54.174Z,175
2018-07-15T14:19:02.823Z,175
2018-07-15T14:20:11.480Z,175
2018-07-15T14:21:20.137Z,170
2018-07-15T14:22:29.042Z,170
2018-07-15T14:23:37.699Z,170
2018-07-15T14:24:46.612Z,170
2018-07-15T14:25:55.543Z,170
2018-07-15T14:27:04.190Z,165
2018-07-15T14:28:13.108Z,165
2018-07-15T14:29:21.760Z,165
2018-07-15T14:30:30.684Z,165
2018-07-15T14:31:39.329Z,160
2018-07-15T14:32:47.986Z,160
2018-07-15T14:33:56.635Z,160
2018-07-15T14:35:05.297Z,160
2018-07-15T14:36:13.948Z,160
2018-07-15T14:37:22.872Z,160
2018-07-15T14:38:31.525Z,160
2018-07-15T14:39:40.176Z,155
2018-07-15T14:40:48.838Z,160
2018-07-15T14:41:57.486Z,155
2018-07-15T14:43:06.145Z,155
2018-07-15T14:44:14.788Z,155
2018-07-15T14:45:23.717Z,155
2018-07-15T14:46:32.369Z,155
2018-07-15T14:47:41.023Z,155
2018-07-15T14:48:49.666Z,155
2018-07-15T14:49:58.329Z,155
2018-07-15T14:51:06.981Z,155
2018-07-15T14:52:15.639Z,155
2018-07-15T14:53:24.550Z,155
2018-07-15T14:54:33.463Z,150
2018-07-15T14:55:42.122Z,150
2018-07-15T14:56:50.776Z,150
2018-07-15T14:57:59.692Z,150
2018-07-15T14:59:08.335Z,150
2018-07-15T15:00:16.997Z,150
2018-07-15T15:01:25.644Z,150
2018-07-15T15:02:34.305Z,145
2018-07-15T15:03:42.950Z,145
2018-07-15T15:04:51.608Z,145
2018-07-15T15:06:00.259Z,145
2018-07-15T15:07:09.184Z,145
2018-07-15T15:08:17.828Z,145
2018-07-15T15:09:26.481Z,145
2018-07-15T15:10:35.397Z,140
2018-07-15T15:11:44.059Z,140
2018-07-15T15:12:52.709Z,140
2018-07-15T15:14:01.357Z,140
2018-07-15T15:15:10.005Z,140
2018-07-15T15:16:18.658Z,140
2018-07-15T15:17:27.323Z,140
2018-07-15T15:18:35.973Z,140
2018-07-15T15:19:44.626Z,140
2018-07-15T15:20:53.275Z,135
2018-07-15T15:22:01.931Z,135
2018-07-15T15:23:10.592Z,140
2018-07-15T15:24:19.244Z,140
2018-07-15T15:25:27.892Z,140
2018-07-15T15:26:36.550Z,135
2018-07-15T15:27:45.468Z,135
2018-07-15T15:28:54.125Z,135
2018-07-15T15:30:02.771Z,135
2018-07-15T15:31:11.685Z,135
2018-07-15T15:32:20.336Z,135
2018-07-15T15:33:28.991Z,135
2018-07-15T15:34:37.647Z,135
2018-07-15T15:35:46.293Z,135
2018-07-15T15:36:54.946Z,135
2018-07-15T15:38:03.602Z,135
2018-07-15T15:39:12.519Z,135
2018-07-15T15:40:21.171Z,130
2018-07-15T15:41:29.826Z,135
2018-07-15T15:42:38.480Z,135
2018-07-15T15:43:47.136Z,135
2018-07-15T15:44:56.231Z,135
2018-07-15T15:46:04.837Z,135
2018-07-15T15:47:13.488Z,135
2018-07-15T15:48:22.405Z,135
2018-07-15T15:49:31.059Z,135
2018-07-15T15:50:39.712Z,135
2018-07-15T15:51:48.360Z,135
2018-07-15T15:52:57.009Z,135
2018-07-15T15:54:05.666Z,135
2018-07-15T15:55:14.320Z,130
2018-07-15T15:56:22.976Z,130
2018-07-15T15:57:31.625Z,130
2018-07-15T15:58:40.284Z,130
2018-07-15T15:59:48.936Z,130
2018-07-15T16:00:57.590Z,130
2018-07-15T16:02:06.239Z,130
2018-07-15T16:03:14.896Z,130
2018-07-15T16:04:23.546Z,130